createdAt,value
2022-09-03T00:03:31.487Z,64.90
2022-09-03T00:06:41.831Z,61.80
2022-09-03T00:16:25.637Z,64.90
2022-09-03T00:19:32.427Z,63.60
2022-09-03T00:22:46.566Z,63.80
2022-09-03T00:26:15.060Z,64.00
2022-09-03T00:29:21.117Z,62.50
2022-09-03T00:32:47.996Z,65.50
2022-09-03T00:36:10.299Z,64.90
2022-09-03T00:39:18.123Z,65.40
2022-09-03T00:42:46.026Z,64.10
2022-09-03T00:46:08.958Z,62.70
2022-09-03T00:49:31.158Z,62.90
2022-09-03T00:52:57.674Z,62.70
2022-09-03T01:03:40.584Z,63.00
2022-09-03T01:07:01.974Z,65.60
2022-09-03T01:10:08.022Z,62.50
2022-09-03T01:13:20.450Z,62.80
2022-09-03T01:16:37.108Z,62.90
2022-09-03T01:20:19.938Z,63.10
2022-09-03T01:23:49.525Z,63.30
2022-09-03T01:27:21.865Z,63.30
2022-09-03T01:34:16.475Z,64.30
2022-09-03T01:41:46.878Z,64.70
2022-09-03T01:48:35.662Z,63.00
2022-09-03T02:15:41.183Z,65.60
2022-09-03T02:22:04.689Z,66.80
2022-09-03T02:25:07.784Z,65.70
2022-09-03T02:28:17.447Z,65.60
2022-09-03T02:31:19.849Z,65.60
2022-09-03T02:34:21.620Z,67.90
2022-09-03T02:37:23.364Z,66.80
2022-09-03T02:40:24.916Z,66.80
2022-09-03T02:43:51.486Z,68.60
2022-09-03T02:46:58.962Z,65.70
2022-09-03T02:50:00.561Z,65.40
2022-09-03T02:53:02.511Z,68.50
2022-09-03T02:56:04.448Z,69.00
2022-09-03T02:59:07.551Z,68.40
2022-09-03T03:02:09.187Z,68.70
2022-09-03T03:05:18.544Z,68.50
2022-09-03T03:08:25.106Z,68.00
2022-09-03T03:11:27.199Z,69.20
2022-09-03T03:14:28.873Z,69.60
2022-09-03T03:17:31.105Z,70.30
2022-09-03T03:20:32.845Z,69.30
2022-09-03T03:23:35.618Z,70.20
2022-09-03T03:26:37.311Z,70.10
2022-09-03T03:29:39.452Z,69.50
2022-09-03T03:32:41.236Z,69.20
2022-09-03T03:35:43.022Z,69.70
2022-09-03T03:38:45.286Z,71.10
2022-09-03T03:41:47.288Z,70.80
2022-09-03T03:44:48.938Z,70.50
2022-09-03T03:47:50.542Z,71.30
2022-09-03T03:50:52.989Z,69.90
2022-09-03T03:53:56.976Z,70.20
2022-09-03T03:56:58.686Z,70.10
2022-09-03T04:00:00.380Z,72.00
2022-09-03T04:03:02.042Z,70.50
2022-09-03T04:06:04.941Z,71.30
2022-09-03T04:09:06.621Z,71.60
2022-09-03T04:12:08.672Z,71.70
2022-09-03T04:15:10.702Z,71.60
2022-09-03T04:18:12.791Z,71.90
2022-09-03T04:21:19.294Z,74.00
2022-09-03T04:24:20.916Z,73.30
2022-09-03T04:27:22.780Z,72.80
2022-09-03T04:30:24.505Z,72.70
2022-09-03T04:33:26.298Z,74.10
2022-09-03T04:36:30.208Z,72.70
2022-09-03T04:39:31.880Z,73.30
2022-09-03T04:42:33.721Z,74.40
2022-09-03T04:45:36.407Z,73.90
2022-09-03T04:48:38.864Z,72.80
2022-09-03T04:51:40.560Z,72.50
2022-09-03T04:54:42.603Z,72.50
2022-09-03T04:57:44.329Z,72.70
2022-09-03T05:00:45.960Z,73.30
2022-09-03T05:03:48.323Z,74.60
2022-09-03T05:06:49.945Z,72.50
2022-09-03T05:09:51.986Z,73.30
2022-09-03T05:13:01.870Z,73.30
2022-09-03T05:16:06.377Z,74.60
2022-09-03T05:19:08.239Z,73.30
2022-09-03T05:22:09.969Z,74.10
2022-09-03T05:25:11.657Z,75.70
2022-09-03T05:28:13.379Z,75.90
2022-09-03T05:31:17.962Z,76.80
2022-09-03T05:34:19.596Z,74.90
2022-09-03T05:37:21.206Z,74.80
2022-09-03T05:40:22.955Z,75.40
2022-09-03T05:43:25.161Z,76.60
2022-09-03T05:46:32.774Z,75.50
2022-09-03T05:49:34.507Z,77.10
2022-09-03T05:52:36.713Z,76.90
2022-09-03T05:55:38.394Z,76.50
2022-09-03T05:58:43.486Z,76.40
2022-09-03T06:01:51.404Z,75.60
2022-09-03T06:04:56.044Z,76.10
2022-09-03T06:07:57.759Z,77.10
2022-09-03T06:11:00.737Z,77.30
2022-09-03T06:14:08.120Z,76.00
2022-09-03T06:17:11.310Z,75.40
2022-09-03T06:20:13.046Z,77.30
2022-09-03T06:23:14.690Z,77.60
2022-09-03T06:26:16.395Z,76.60
2022-09-03T06:29:19.845Z,78.70
2022-09-03T06:32:21.484Z,76.70
2022-09-03T06:35:23.248Z,77.20
2022-09-03T06:38:26.440Z,77.00
2022-09-03T06:41:31.740Z,75.80
2022-09-03T06:44:33.441Z,74.50
2022-09-03T06:47:35.540Z,75.20
2022-09-03T06:50:37.258Z,74.90
2022-09-03T06:53:41.017Z,75.40
2022-09-03T06:56:42.738Z,73.80
2022-09-03T06:59:44.419Z,75.30
2022-09-03T07:02:48.731Z,74.00
2022-09-03T07:05:50.438Z,74.20
2022-09-03T07:08:52.320Z,74.10
2022-09-03T07:11:54.336Z,72.70
2022-09-03T07:14:56.024Z,71.10
2022-09-03T07:17:57.748Z,73.70
2022-09-03T07:21:01.362Z,73.00
2022-09-03T07:24:05.075Z,72.20
2022-09-03T07:27:09.022Z,70.60
2022-09-03T07:30:12.845Z,70.10
2022-09-03T07:33:14.561Z,71.40
2022-09-03T07:36:17.404Z,72.20
2022-09-03T07:39:20.339Z,71.50
2022-09-03T07:42:22.136Z,72.70
2022-09-03T07:45:24.011Z,71.50
2022-09-03T07:48:25.821Z,69.40
2022-09-03T07:51:29.825Z,70.90
2022-09-03T07:54:32.043Z,70.40
2022-09-03T07:57:33.721Z,71.80
2022-09-03T08:00:35.542Z,72.60
2022-09-03T08:03:38.128Z,71.10
2022-09-03T08:06:40.254Z,69.60
2022-09-03T08:09:50.825Z,69.80
2022-09-03T08:12:52.474Z,70.70
2022-09-03T08:15:55.631Z,70.00
2022-09-03T08:18:57.966Z,69.20
2022-09-03T08:22:00.353Z,68.80
2022-09-03T08:25:02.084Z,71.20
2022-09-03T08:28:03.852Z,69.80
2022-09-03T08:31:11.664Z,70.60
2022-09-03T08:34:14.678Z,65.20
2022-09-03T08:37:16.629Z,70.30
2022-09-03T08:40:18.907Z,69.90
2022-09-03T08:43:20.795Z,68.70
2022-09-03T08:46:27.637Z,68.30
2022-09-03T08:49:47.341Z,67.10
2022-09-03T08:53:06.321Z,67.30
2022-09-03T08:56:11.923Z,63.60
2022-09-03T08:59:14.008Z,66.60
2022-09-03T09:02:29.465Z,67.50
2022-09-03T09:05:51.853Z,66.40
2022-09-03T09:09:06.079Z,63.60
2022-09-03T09:12:30.748Z,63.40
2022-09-03T09:15:57.368Z,63.20
2022-09-03T09:19:25.704Z,63.60
2022-09-03T09:22:34.875Z,63.00
2022-09-03T09:25:50.443Z,66.50
2022-09-03T09:29:05.580Z,66.50
2022-09-03T09:32:13.095Z,62.60
2022-09-03T09:35:32.352Z,66.40
2022-09-03T09:38:36.499Z,68.10
2022-09-03T09:41:38.140Z,64.20
2022-09-03T09:44:42.302Z,64.30
2022-09-03T09:47:43.986Z,64.00
2022-09-03T09:50:45.670Z,64.20
2022-09-03T09:53:47.367Z,64.30
2022-09-03T09:57:03.570Z,64.30
2022-09-03T10:00:11.981Z,62.20
2022-09-03T10:03:13.815Z,63.50
2022-09-03T10:06:35.141Z,64.50
2022-09-03T10:09:36.728Z,64.30
2022-09-03T10:13:13.270Z,65.50
2022-09-03T10:16:37.229Z,62.50
2022-09-03T10:20:19.375Z,64.10
2022-09-03T10:23:29.406Z,61.50
2022-09-03T10:26:32.963Z,63.00
2022-09-03T10:29:34.555Z,62.30
2022-09-03T10:33:10.982Z,63.10
2022-09-03T10:36:41.479Z,60.80
2022-09-03T10:39:52.598Z,61.00
2022-09-03T10:43:18.670Z,60.90
2022-09-03T10:46:27.815Z,60.70
2022-09-03T10:49:53.191Z,64.40
2022-09-03T10:53:28.230Z,61.00
2022-09-03T10:56:29.753Z,61.00
2022-09-03T10:59:51.270Z,63.20
2022-09-03T11:03:23.414Z,64.80
2022-09-03T11:06:28.929Z,61.60
2022-09-03T11:09:49.742Z,64.70
2022-09-03T11:13:13.375Z,61.60
2022-09-03T11:16:20.556Z,61.40
2022-09-03T11:19:32.991Z,64.20
2022-09-03T11:22:35.656Z,63.90
2022-09-03T11:25:52.938Z,64.00
2022-09-03T11:29:08.223Z,64.80
2022-09-03T11:32:18.469Z,60.20
2022-09-03T11:35:28.127Z,65.10
2022-09-03T11:38:33.446Z,61.00
2022-09-03T11:41:35.772Z,64.40
2022-09-03T11:44:51.374Z,65.30
2022-09-03T11:47:54.399Z,63.80
2022-09-03T11:50:56.502Z,65.00
2022-09-03T11:54:03.883Z,65.50
2022-09-03T11:57:14.669Z,63.00
2022-09-03T12:00:21.642Z,64.30
2022-09-03T12:03:45.006Z,61.70
2022-09-03T12:07:04.749Z,62.50
2022-09-03T12:10:59.479Z,63.10
2022-09-03T12:22:41.697Z,64.50
2022-09-03T12:25:47.381Z,62.90
2022-09-03T12:28:53.793Z,61.50
2022-09-03T12:31:56.483Z,63.40
2022-09-03T12:35:13.269Z,62.10
2022-09-03T12:38:23.817Z,62.10
2022-09-03T12:41:36.956Z,62.70
2022-09-03T12:44:42.972Z,64.90
2022-09-03T12:47:45.071Z,63.00
2022-09-03T12:50:56.519Z,63.40
2022-09-03T12:53:59.739Z,62.10
2022-09-03T12:57:02.159Z,63.10
2022-09-03T13:00:12.612Z,65.30
2022-09-03T13:03:51.946Z,59.80
2022-09-03T13:07:14.748Z,58.20
2022-09-03T13:10:29.271Z,58.80
2022-09-03T13:14:10.282Z,62.80
2022-09-03T13:17:37.979Z,57.20
2022-09-03T13:21:15.533Z,57.70
2022-09-03T13:25:03.983Z,57.60
2022-09-03T13:28:27.353Z,57.80
2022-09-03T13:35:30.919Z,57.70
2022-09-03T13:38:45.643Z,62.60
2022-09-03T13:41:54.344Z,58.70
2022-09-03T13:45:11.537Z,63.10
2022-09-03T13:48:39.009Z,58.40
2022-09-03T13:51:57.649Z,62.60
2022-09-03T13:55:08.564Z,62.40
2022-09-03T13:58:37.230Z,63.70
2022-09-03T14:01:44.289Z,60.20
2022-09-03T14:05:28.699Z,63.90
2022-09-03T14:09:07.343Z,59.70
2022-09-03T14:12:36.564Z,60.00
2022-09-03T14:16:07.153Z,58.60
2022-09-03T14:19:22.161Z,59.00
2022-09-03T14:22:48.585Z,62.80
2022-09-03T14:26:03.082Z,58.50
2022-09-03T14:29:11.255Z,60.20
2022-09-03T14:32:25.101Z,63.50
2022-09-03T14:35:38.837Z,58.90
2022-09-03T14:39:30.761Z,58.90
2022-09-03T14:43:14.510Z,59.90
2022-09-03T14:46:34.838Z,59.80
2022-09-03T14:49:59.658Z,60.10
2022-09-03T14:53:27.818Z,59.20
2022-09-03T14:56:45.726Z,60.80
2022-09-03T15:00:08.673Z,59.50
2022-09-03T15:03:40.162Z,60.90
2022-09-03T15:06:56.826Z,65.10
2022-09-03T15:10:36.844Z,62.60
2022-09-03T15:14:13.026Z,60.10
2022-09-03T15:17:26.953Z,63.40
2022-09-03T15:20:53.233Z,60.30
2022-09-03T15:24:09.984Z,60.00
2022-09-03T15:27:49.769Z,60.40
2022-09-03T15:31:12.672Z,60.80
2022-09-03T15:34:52.828Z,65.70
2022-09-03T15:38:26.344Z,61.10
2022-09-03T15:41:58.899Z,60.60
2022-09-03T15:45:28.499Z,60.80
2022-09-03T15:48:48.790Z,65.60
2022-09-03T15:51:56.714Z,64.90
2022-09-03T15:55:20.531Z,60.80
2022-09-03T15:58:49.219Z,60.80
2022-09-03T16:01:59.627Z,64.10
2022-09-03T16:05:45.787Z,63.70
2022-09-03T16:09:00.289Z,64.20
2022-09-03T16:12:50.626Z,64.70
2022-09-03T16:16:18.645Z,61.50
2022-09-03T16:19:40.780Z,63.70
2022-09-03T16:23:11.060Z,63.70
2022-09-03T16:26:23.087Z,61.50
2022-09-03T16:29:32.755Z,61.00
2022-09-03T16:32:52.052Z,66.00
2022-09-03T16:36:12.146Z,61.60
2022-09-03T16:40:01.022Z,61.50
2022-09-03T16:43:39.283Z,66.90
2022-09-03T16:47:01.284Z,62.90
2022-09-03T16:50:30.252Z,65.70
2022-09-03T16:54:58.473Z,67.40
2022-09-03T16:58:04.064Z,67.90
2022-09-03T17:01:39.879Z,63.60
2022-09-03T17:05:13.926Z,69.20
2022-09-03T17:08:36.105Z,64.50
2022-09-03T17:12:10.315Z,69.70
2022-09-03T17:15:54.834Z,67.80
2022-09-03T17:19:06.569Z,68.30
2022-09-03T17:22:50.055Z,69.20
2022-09-03T17:26:07.289Z,66.30
2022-09-03T17:29:36.756Z,68.80
2022-09-03T17:33:01.556Z,69.60
2022-09-03T17:36:18.791Z,67.20
2022-09-03T17:39:59.517Z,71.30
2022-09-03T17:43:25.863Z,69.10
2022-09-03T17:46:27.773Z,70.30
2022-09-03T17:49:34.867Z,73.30
2022-09-03T17:52:48.644Z,75.00
2022-09-03T17:56:04.189Z,75.60
2022-09-03T17:59:18.756Z,75.90
2022-09-03T18:02:39.769Z,75.20
2022-09-03T18:06:00.579Z,75.50
2022-09-03T18:09:22.852Z,78.20
2022-09-03T18:12:33.717Z,78.30
2022-09-03T18:15:57.281Z,78.80
2022-09-03T18:19:30.185Z,76.50
2022-09-03T18:23:17.066Z,81.10
2022-09-03T18:26:46.952Z,80.90
2022-09-03T18:30:21.386Z,82.90
2022-09-03T18:33:48.388Z,82.50
2022-09-03T18:37:10.058Z,83.80
2022-09-03T18:40:51.067Z,81.20
2022-09-03T18:44:28.946Z,85.40
2022-09-03T18:48:20.732Z,80.60
2022-09-03T18:51:49.980Z,79.40
2022-09-03T18:55:35.132Z,80.90
2022-09-03T18:59:24.218Z,80.00
2022-09-03T19:03:11.185Z,83.60
2022-09-03T19:06:50.661Z,83.10
2022-09-03T19:10:25.130Z,82.00
2022-09-03T19:14:00.114Z,80.30
2022-09-03T19:17:47.442Z,83.20
2022-09-03T19:21:29.911Z,84.20
2022-09-03T19:24:52.722Z,83.60
2022-09-03T19:28:50.057Z,85.20
2022-09-03T19:32:21.168Z,85.40
2022-09-03T19:35:51.448Z,86.20
2022-09-03T19:39:47.578Z,86.60
2022-09-03T19:43:36.849Z,84.70
2022-09-03T19:47:12.961Z,84.60
2022-09-03T19:50:48.263Z,84.20
2022-09-03T19:54:16.036Z,84.00
2022-09-03T19:57:39.399Z,85.50
2022-09-03T20:01:00.531Z,87.60
2022-09-03T20:04:30.654Z,86.80
2022-09-03T20:07:53.919Z,87.50
2022-09-03T20:11:02.853Z,86.40
2022-09-03T20:14:18.599Z,86.50
2022-09-03T20:17:32.407Z,87.10
2022-09-03T20:21:06.177Z,83.40
2022-09-03T20:24:25.086Z,84.40
2022-09-03T20:27:40.689Z,84.70
2022-09-03T20:31:12.928Z,84.90
2022-09-03T20:34:41.665Z,84.80
2022-09-03T20:38:03.519Z,84.60
2022-09-03T20:41:30.304Z,87.20
2022-09-03T20:44:48.764Z,86.60
2022-09-03T20:48:08.480Z,85.30
2022-09-03T20:51:22.953Z,87.20
2022-09-03T20:54:39.316Z,86.80
2022-09-03T20:58:05.780Z,85.70
2022-09-03T21:01:10.320Z,85.40
2022-09-03T21:04:36.021Z,87.60
2022-09-03T21:08:20.323Z,85.90
2022-09-03T21:11:56.547Z,86.20
2022-09-03T21:15:26.371Z,86.20
2022-09-03T21:18:46.759Z,86.40
2022-09-03T21:22:13.075Z,88.00
2022-09-03T21:25:23.825Z,86.50
2022-09-03T21:28:41.217Z,89.00
2022-09-03T21:31:54.574Z,87.00
2022-09-03T21:35:10.743Z,86.90
2022-09-03T21:38:18.448Z,87.10
2022-09-03T21:41:41.743Z,89.90
2022-09-03T21:44:53.249Z,88.20
2022-09-03T21:48:05.283Z,87.30
2022-09-03T21:51:14.110Z,90.00
2022-09-03T21:54:33.606Z,89.80
2022-09-03T21:57:49.332Z,90.20
2022-09-03T22:01:00.237Z,90.50
2022-09-03T22:04:02.045Z,90.30
2022-09-03T22:07:31.590Z,90.20
2022-09-03T22:10:58.818Z,89.20
2022-09-03T22:14:19.872Z,89.60
2022-09-03T22:17:49.351Z,89.70
2022-09-03T22:21:13.110Z,89.70
2022-09-03T22:24:32.237Z,90.00
2022-09-03T22:27:44.211Z,90.10
2022-09-03T22:30:59.327Z,91.00
2022-09-03T22:34:37.753Z,91.00
2022-09-03T22:38:04.399Z,90.20
2022-09-03T22:41:48.461Z,90.00
2022-09-03T22:45:23.623Z,89.70
2022-09-03T22:48:58.276Z,90.00
2022-09-03T22:52:18.758Z,89.60
2022-09-03T22:55:25.190Z,90.30
2022-09-03T22:58:32.819Z,91.00
2022-09-03T23:01:44.256Z,91.10
2022-09-03T23:05:23.586Z,91.70
2022-09-03T23:08:34.702Z,90.40
2022-09-03T23:11:47.058Z,90.50
2022-09-03T23:14:54.043Z,91.60
2022-09-03T23:18:26.947Z,91.50
2022-09-03T23:21:40.660Z,91.30
2022-09-03T23:24:54.088Z,91.60
2022-09-03T23:28:01.391Z,92.30
2022-09-03T23:31:19.235Z,91.50
2022-09-03T23:34:21.261Z,90.90
2022-09-03T23:37:37.233Z,91.40
2022-09-03T23:40:53.144Z,90.60
2022-09-03T23:44:03.778Z,91.10
2022-09-03T23:47:14.117Z,91.90
2022-09-03T23:50:51.364Z,91.90
2022-09-03T23:54:07.806Z,91.00
2022-09-03T23:57:24.495Z,91.20
